Time;durP1;ratioP1;P1;durP2;ratioP2;P2;SDS_P1;SDS_P2;PMS_P1;PMS_P2;Temp;Humidity;BMP_temperature;BMP_pressure;BME280_temperature;BME280_humidity;BME280_pressure;Samples;Min_cycle;Max_cycle;Signal;HPM_P1;HPM_P2
2022/07/11 00:00:43;;;;;;;3.17;2.60;;;;;;;;;;4967819;28;20225;-72
2022/07/11 00:03:09;;;;;;;3.67;2.80;;;;;;;;;;4975364;28;20635;-72
2022/07/11 00:05:36;;;;;;;3.53;3.10;;;;;;;;;;4972670;28;20192;-72
2022/07/11 00:08:02;;;;;;;3.43;3.10;;;;;;;;;;4973401;28;20180;-72
2022/07/11 00:10:28;;;;;;;3.53;3.00;;;;;;;;;;4969381;28;20181;-72
2022/07/11 00:12:54;;;;;;;3.57;2.50;;;;;;;;;;4969660;28;20204;-72
2022/07/11 00:15:20;;;;;;;3.47;2.80;;;;;;;;;;4970034;28;20188;-72
2022/07/11 00:17:46;;;;;;;3.40;3.10;;;;;;;;;;4971512;28;20191;-72
2022/07/11 00:20:13;;;;;;;6.27;3.17;;;;;;;;;;4970903;28;20181;-72
2022/07/11 00:22:39;;;;;;;8.07;2.90;;;;;;;;;;4980167;28;20300;-72
2022/07/11 00:25:05;;;;;;;4.30;3.23;;;;;;;;;;4971137;28;20207;-72
2022/07/11 00:27:32;;;;;;;3.40;3.10;;;;;;;;;;4971005;28;20212;-72
2022/07/11 00:29:58;;;;;;;3.47;3.17;;;;;;;;;;4956730;28;20203;-72
2022/07/11 00:32:24;;;;;;;3.87;3.20;;;;;;;;;;4976528;28;20192;-72
2022/07/11 00:34:51;;;;;;;4.87;3.50;;;;;;;;;;4975084;28;20637;-72
2022/07/11 00:37:17;;;;;;;4.33;3.93;;;;;;;;;;4971113;28;20227;-72
2022/07/11 00:39:43;;;;;;;3.87;3.57;;;;;;;;;;4971849;28;20189;-72
2022/07/11 00:42:10;;;;;;;3.93;3.57;;;;;;;;;;4972808;28;20231;-72
2022/07/11 00:44:36;;;;;;;4.00;3.60;;;;;;;;;;4973328;28;20238;-72
2022/07/11 00:47:03;;;;;;;4.73;4.23;;;;;;;;;;4972796;28;20680;-72
2022/07/11 00:49:29;;;;;;;4.70;4.20;;;;;;;;;;4971351;28;20263;-72
2022/07/11 00:51:56;;;;;;;5.87;4.50;;;;;;;;;;4969799;28;20188;-72
2022/07/11 00:54:30;;;;;;;4.93;4.10;;;;;;;;;;4970505;28;20731;-72
2022/07/11 00:57:05;;;;;;;5.50;4.07;;;;;;;;;;4970596;28;20716;-72
2022/07/11 00:59:34;;;;;;;5.83;4.60;;;;;;;;;;4972313;28;20240;-72
2022/07/11 01:02:01;;;;;;;5.30;4.50;;;;;;;;;;4972557;28;20238;-72
2022/07/11 01:04:34;;;;;;;5.07;4.60;;;;;;;;;;4973892;28;20754;-72
2022/07/11 01:07:10;;;;;;;4.50;4.10;;;;;;;;;;4971900;28;20312;-72
2022/07/11 01:09:47;;;;;;;4.60;4.20;;;;;;;;;;4970319;28;20184;-72
2022/07/11 01:12:22;;;;;;;4.73;4.33;;;;;;;;;;4971019;28;20551;-72
2022/07/11 01:14:59;;;;;;;5.17;3.73;;;;;;;;;;4969496;28;20185;-72
2022/07/11 01:17:34;;;;;;;4.17;3.80;;;;;;;;;;4967122;28;20292;-72
2022/07/11 01:20:10;;;;;;;3.87;3.30;;;;;;;;;;4971023;28;20211;-72
2022/07/11 01:22:50;;;;;;;4.30;3.90;;;;;;;;;;4969242;28;20239;-72
2022/07/11 01:25:31;;;;;;;3.73;3.43;;;;;;;;;;4967046;28;20196;-72
2022/07/11 01:28:08;;;;;;;3.97;3.57;;;;;;;;;;4970613;28;20188;-72
2022/07/11 01:30:44;;;;;;;3.93;2.83;;;;;;;;;;4971655;28;20219;-72
2022/07/11 01:33:20;;;;;;;3.53;3.23;;;;;;;;;;4968829;28;20840;-72
2022/07/11 01:35:57;;;;;;;3.30;3.00;;;;;;;;;;4965299;28;20579;-72
2022/07/11 01:38:34;;;;;;;4.67;3.00;;;;;;;;;;4973391;28;20250;-72
2022/07/11 01:41:10;;;;;;;3.63;3.27;;;;;;;;;;4971947;28;20211;-72
2022/07/11 01:43:46;;;;;;;3.53;2.93;;;;;;;;;;4952947;28;20208;-72
2022/07/11 01:46:22;;;;;;;4.47;3.10;;;;;;;;;;4953799;28;20212;-72
2022/07/11 01:48:58;;;;;;;3.33;2.73;;;;;;;;;;4971702;28;20184;-72
2022/07/11 01:51:35;;;;;;;4.93;3.00;;;;;;;;;;4971032;28;20209;-72
2022/07/11 01:54:12;;;;;;;6.97;3.20;;;;;;;;;;4970547;28;20208;-72
2022/07/11 01:56:47;;;;;;;3.53;2.90;;;;;;;;;;4971537;28;20195;-72
2022/07/11 01:59:24;;;;;;;3.47;2.90;;;;;;;;;;4971699;28;20196;-72
2022/07/11 02:02:00;;;;;;;4.93;3.03;;;;;;;;;;4959041;28;20251;-72
2022/07/11 02:04:36;;;;;;;3.30;3.00;;;;;;;;;;4973731;28;20212;-72
2022/07/11 02:07:14;;;;;;;4.00;3.13;;;;;;;;;;4972146;28;20208;-72
2022/07/11 02:09:51;;;;;;;3.70;3.00;;;;;;;;;;4974053;28;20609;-72
2022/07/11 02:12:27;;;;;;;3.57;3.23;;;;;;;;;;4970563;28;20274;-72
2022/07/11 02:15:03;;;;;;;3.63;3.10;;;;;;;;;;4969651;28;20659;-72
2022/07/11 02:17:40;;;;;;;3.93;3.00;;;;;;;;;;4967222;28;20648;-72
2022/07/11 02:20:18;;;;;;;3.50;3.10;;;;;;;;;;4970481;28;20200;-72
2022/07/11 02:22:56;;;;;;;3.40;3.10;;;;;;;;;;4969985;28;20208;-71
2022/07/11 02:25:35;;;;;;;3.17;2.70;;;;;;;;;;4970161;28;20279;-72
2022/07/11 02:28:11;;;;;;;3.70;3.23;;;;;;;;;;4965483;28;20196;-72
2022/07/11 02:30:48;;;;;;;4.00;3.30;;;;;;;;;;4970479;28;20207;-72
2022/07/11 02:33:24;;;;;;;3.93;2.93;;;;;;;;;;4968402;28;20215;-72
2022/07/11 02:36:00;;;;;;;4.97;3.50;;;;;;;;;;4969031;28;20656;-72
2022/07/11 02:38:36;;;;;;;3.17;2.87;;;;;;;;;;4955181;28;20204;-72
2022/07/11 02:41:13;;;;;;;4.53;3.07;;;;;;;;;;4970000;28;20244;-72
2022/07/11 02:43:47;;;;;;;3.00;2.70;;;;;;;;;;4969244;28;20262;-72
2022/07/11 02:46:20;;;;;;;3.40;3.10;;;;;;;;;;4969861;28;20800;-72
2022/07/11 02:48:56;;;;;;;3.40;3.10;;;;;;;;;;4973495;28;20188;-72
2022/07/11 02:51:32;;;;;;;3.30;2.90;;;;;;;;;;4973230;28;20176;-72
2022/07/11 02:54:09;;;;;;;3.20;2.90;;;;;;;;;;4970585;28;20208;-72
2022/07/11 02:56:46;;;;;;;3.70;3.17;;;;;;;;;;4970008;28;20557;-72
2022/07/11 02:59:22;;;;;;;3.63;3.33;;;;;;;;;;4971391;28;20184;-72
2022/07/11 03:01:59;;;;;;;4.97;2.80;;;;;;;;;;4972324;28;20637;-72
2022/07/11 03:04:36;;;;;;;4.67;3.23;;;;;;;;;;4977642;28;20282;-72
2022/07/11 03:07:12;;;;;;;3.63;3.10;;;;;;;;;;4971695;28;20311;-72
2022/07/11 03:09:49;;;;;;;4.33;3.17;;;;;;;;;;4974598;28;20184;-72
2022/07/11 03:12:26;;;;;;;4.37;3.17;;;;;;;;;;4970724;28;21156;-72
2022/07/11 03:15:04;;;;;;;3.20;2.90;;;;;;;;;;4973809;28;20540;-72
2022/07/11 03:17:41;;;;;;;4.27;3.20;;;;;;;;;;4973620;28;20574;-72
2022/07/11 03:20:17;;;;;;;3.93;3.30;;;;;;;;;;4970918;28;20275;-72
2022/07/11 03:22:54;;;;;;;3.50;2.87;;;;;;;;;;4967683;28;20218;-72
2022/07/11 03:25:31;;;;;;;4.60;3.20;;;;;;;;;;4970999;28;20223;-72
2022/07/11 03:28:08;;;;;;;4.90;3.07;;;;;;;;;;4968793;28;20562;-72
2022/07/11 03:30:45;;;;;;;4.00;3.40;;;;;;;;;;4973763;28;20203;-72
2022/07/11 03:33:21;;;;;;;3.47;3.17;;;;;;;;;;4975103;28;20207;-72
2022/07/11 03:36:00;;;;;;;3.70;3.30;;;;;;;;;;4970781;28;20656;-72
2022/07/11 03:38:38;;;;;;;3.27;3.00;;;;;;;;;;4971491;28;20710;-72
2022/07/11 03:41:14;;;;;;;3.60;3.30;;;;;;;;;;4972321;28;20192;-72
2022/07/11 03:43:51;;;;;;;3.50;3.20;;;;;;;;;;4974098;28;20290;-72
2022/07/11 03:46:23;;;;;;;3.20;2.93;;;;;;;;;;4977493;28;20204;-72
2022/07/11 03:48:59;;;;;;;3.83;3.27;;;;;;;;;;4978127;28;20201;-72
2022/07/11 03:51:36;;;;;;;5.07;3.10;;;;;;;;;;4976239;28;20258;-72
2022/07/11 03:54:12;;;;;;;3.63;3.33;;;;;;;;;;4972649;28;20226;-72
2022/07/11 03:56:49;;;;;;;3.43;3.13;;;;;;;;;;4975407;28;20206;-72
2022/07/11 03:59:25;;;;;;;3.40;3.10;;;;;;;;;;4976940;28;20199;-72
2022/07/11 04:01:59;;;;;;;4.67;3.43;;;;;;;;;;4973539;28;20189;-72
2022/07/11 04:04:35;;;;;;;5.33;2.90;;;;;;;;;;4973685;28;20266;-72
2022/07/11 04:07:13;;;;;;;3.83;3.43;;;;;;;;;;4972672;28;20339;-72
2022/07/11 04:09:49;;;;;;;4.53;3.20;;;;;;;;;;4971329;28;20192;-72
2022/07/11 04:12:27;;;;;;;3.57;3.23;;;;;;;;;;4973841;28;20526;-72
2022/07/11 04:15:06;;;;;;;3.67;3.30;;;;;;;;;;4976823;28;20188;-72
2022/07/11 04:17:42;;;;;;;4.07;3.67;;;;;;;;;;4963743;28;20640;-72
2022/07/11 04:20:18;;;;;;;4.50;3.10;;;;;;;;;;4970491;28;20219;-72
2022/07/11 04:22:54;;;;;;;4.77;3.43;;;;;;;;;;4972033;28;20287;-72
2022/07/11 04:25:27;;;;;;;3.70;3.27;;;;;;;;;;4972754;28;20645;-72
2022/07/11 04:27:53;;;;;;;3.50;3.20;;;;;;;;;;4970321;28;20218;-72
2022/07/11 04:30:24;;;;;;;4.63;3.43;;;;;;;;;;4974384;28;20618;-72
2022/07/11 04:33:00;;;;;;;4.10;3.03;;;;;;;;;;4971254;28;20208;-72
2022/07/11 04:35:35;;;;;;;5.20;3.23;;;;;;;;;;4969970;28;20577;-72
2022/07/11 04:38:11;;;;;;;3.63;3.30;;;;;;;;;;4972268;28;20180;-72
2022/07/11 04:40:44;;;;;;;3.33;2.90;;;;;;;;;;4970473;28;20599;-72
2022/07/11 04:43:13;;;;;;;4.60;3.37;;;;;;;;;;4971481;28;20212;-72
2022/07/11 04:45:50;;;;;;;4.47;3.20;;;;;;;;;;4973097;28;20287;-72
2022/07/11 04:48:31;;;;;;;3.60;2.93;;;;;;;;;;4977900;28;20184;-72
2022/07/11 04:51:05;;;;;;;3.30;3.00;;;;;;;;;;4972664;28;20184;-72
2022/07/11 04:53:32;;;;;;;3.80;3.10;;;;;;;;;;4978288;28;20223;-72
2022/07/11 04:56:01;;;;;;;4.30;3.50;;;;;;;;;;4973603;28;20279;-72
2022/07/11 04:58:32;;;;;;;3.53;3.23;;;;;;;;;;4969355;28;20195;-72
2022/07/11 05:01:07;;;;;;;3.03;2.83;;;;;;;;;;4974439;28;20604;-72
2022/07/11 05:03:36;;;;;;;3.20;3.00;;;;;;;;;;4972882;28;20239;-72
2022/07/11 05:06:06;;;;;;;3.20;2.90;;;;;;;;;;4970823;28;20306;-72
2022/07/11 05:08:37;;;;;;;4.00;3.20;;;;;;;;;;4969827;28;20240;-72
2022/07/11 05:11:07;;;;;;;4.90;3.20;;;;;;;;;;4972707;28;20188;-72
2022/07/11 05:13:35;;;;;;;3.93;3.30;;;;;;;;;;4971419;28;20201;-72
2022/07/11 05:16:03;;;;;;;3.47;3.17;;;;;;;;;;4974540;28;20184;-72
2022/07/11 05:18:37;;;;;;;3.67;3.17;;;;;;;;;;4970405;28;20187;-72
2022/07/11 05:21:05;;;;;;;3.33;3.03;;;;;;;;;;4971237;28;20192;-72
2022/07/11 05:23:35;;;;;;;4.37;3.47;;;;;;;;;;4972069;28;20214;-72
2022/07/11 05:26:04;;;;;;;3.43;3.13;;;;;;;;;;4972607;28;20348;-72
2022/07/11 05:28:35;;;;;;;5.73;3.77;;;;;;;;;;4972377;28;20192;-72
2022/07/11 05:31:08;;;;;;;5.70;3.20;;;;;;;;;;4971372;28;20188;-72
2022/07/11 05:33:38;;;;;;;4.60;3.10;;;;;;;;;;4970020;28;20270;-72
2022/07/11 05:36:10;;;;;;;4.17;3.60;;;;;;;;;;4969419;28;20192;-72
2022/07/11 05:38:40;;;;;;;3.60;2.90;;;;;;;;;;4974670;28;20648;-72
2022/07/11 05:41:12;;;;;;;4.53;3.80;;;;;;;;;;4973852;28;20207;-72
2022/07/11 05:43:39;;;;;;;4.13;3.67;;;;;;;;;;4970779;28;20274;-72
2022/07/11 05:46:08;;;;;;;5.37;3.67;;;;;;;;;;4972755;28;20209;-72
2022/07/11 05:48:38;;;;;;;4.80;3.60;;;;;;;;;;4970155;28;20176;-72
2022/07/11 05:51:16;;;;;;;5.40;3.70;;;;;;;;;;4976686;28;20184;-72
2022/07/11 05:53:49;;;;;;;4.87;3.70;;;;;;;;;;4969436;28;20211;-72
2022/07/11 05:56:19;;;;;;;4.47;3.47;;;;;;;;;;4969528;28;20219;-72
2022/07/11 05:58:52;;;;;;;6.57;3.70;;;;;;;;;;4970311;28;20633;-72
2022/07/11 06:01:26;;;;;;;4.33;2.93;;;;;;;;;;4969010;28;20319;-72
2022/07/11 06:03:56;;;;;;;3.33;2.87;;;;;;;;;;4969296;28;20222;-72
2022/07/11 06:06:28;;;;;;;3.50;3.20;;;;;;;;;;4971262;28;20212;-72
2022/07/11 06:09:02;;;;;;;3.97;3.27;;;;;;;;;;4967593;28;20240;-72
2022/07/11 06:11:31;;;;;;;3.30;2.90;;;;;;;;;;4975129;28;20188;-71
2022/07/11 06:13:58;;;;;;;5.93;2.87;;;;;;;;;;4975335;28;20283;-74
2022/07/11 06:16:30;;;;;;;3.40;2.80;;;;;;;;;;4970103;28;20637;-71
2022/07/11 06:19:00;;;;;;;3.37;2.83;;;;;;;;;;4964347;28;20196;-71
2022/07/11 06:21:29;;;;;;;4.33;2.70;;;;;;;;;;4967332;28;20950;-71
2022/07/11 06:24:01;;;;;;;5.43;2.70;;;;;;;;;;4955153;28;20212;-72
2022/07/11 06:26:30;;;;;;;4.00;2.77;;;;;;;;;;4970513;28;20208;-72
2022/07/11 06:28:59;;;;;;;3.10;2.80;;;;;;;;;;4965835;28;20283;-72
2022/07/11 06:31:27;;;;;;;3.70;2.93;;;;;;;;;;4963675;28;20188;-72
2022/07/11 06:33:58;;;;;;;7.67;3.30;;;;;;;;;;4966718;28;20295;-72
2022/07/11 06:36:26;;;;;;;4.10;3.20;;;;;;;;;;4969500;28;20243;-72
2022/07/11 06:38:56;;;;;;;5.27;3.17;;;;;;;;;;4969458;28;20188;-72
2022/07/11 06:41:30;;;;;;;4.80;2.90;;;;;;;;;;4969288;28;20192;-72
2022/07/11 06:44:02;;;;;;;4.43;2.93;;;;;;;;;;4968575;28;20544;-71
2022/07/11 06:46:30;;;;;;;3.77;2.97;;;;;;;;;;4970191;28;20215;-71
2022/07/11 06:49:01;;;;;;;3.77;2.80;;;;;;;;;;4949771;28;20258;-71
2022/07/11 06:51:28;;;;;;;5.13;3.07;;;;;;;;;;4973751;28;20212;-72
2022/07/11 06:53:56;;;;;;;3.17;2.70;;;;;;;;;;4968438;28;20204;-72
2022/07/11 06:56:22;;;;;;;3.63;3.30;;;;;;;;;;4951297;28;20211;-71
2022/07/11 06:58:51;;;;;;;4.57;3.30;;;;;;;;;;4969239;28;20188;-72
2022/07/11 07:01:22;;;;;;;4.37;2.97;;;;;;;;;;4965149;28;20185;-72
2022/07/11 07:03:52;;;;;;;3.70;3.10;;;;;;;;;;4969867;28;20200;-72
2022/07/11 07:06:20;;;;;;;5.23;3.10;;;;;;;;;;4970129;28;20554;-73
2022/07/11 07:08:48;;;;;;;4.63;3.10;;;;;;;;;;4973485;28;20189;-72
2022/07/11 07:11:16;;;;;;;3.17;2.83;;;;;;;;;;4975937;28;20287;-72
2022/07/11 07:13:45;;;;;;;3.90;3.10;;;;;;;;;;4974194;28;20204;-72
2022/07/11 07:16:11;;;;;;;4.00;3.00;;;;;;;;;;4972034;28;20202;-72
2022/07/11 07:18:45;;;;;;;6.23;2.97;;;;;;;;;;4970509;28;20648;-73
2022/07/11 07:21:14;;;;;;;7.60;3.60;;;;;;;;;;4971832;28;20180;-72
2022/07/11 07:23:40;;;;;;;6.77;3.53;;;;;;;;;;4973596;28;20208;-71
2022/07/11 07:26:11;;;;;;;4.73;3.60;;;;;;;;;;4974857;28;20219;-71
2022/07/11 07:28:43;;;;;;;4.80;3.27;;;;;;;;;;4972407;28;20585;-72
2022/07/11 07:31:12;;;;;;;4.10;3.03;;;;;;;;;;4973042;28;20216;-72
2022/07/11 07:33:40;;;;;;;4.50;3.60;;;;;;;;;;4960537;28;20208;-73
2022/07/11 07:36:07;;;;;;;3.33;3.03;;;;;;;;;;4972558;28;20192;-72
2022/07/11 07:38:39;;;;;;;3.50;3.00;;;;;;;;;;4956242;28;20236;-72
2022/07/11 07:41:12;;;;;;;5.20;3.07;;;;;;;;;;4968377;28;20188;-72
2022/07/11 07:43:44;;;;;;;5.43;3.10;;;;;;;;;;4970025;28;20216;-72
2022/07/11 07:46:13;;;;;;;3.40;2.97;;;;;;;;;;4969487;28;20227;-72
2022/07/11 07:48:43;;;;;;;3.83;2.77;;;;;;;;;;4968828;28;21587;-72
2022/07/11 07:51:11;;;;;;;3.67;3.37;;;;;;;;;;4972733;28;20562;-73
2022/07/11 07:53:38;;;;;;;5.07;3.03;;;;;;;;;;4972819;28;20208;-72
2022/07/11 07:56:09;;;;;;;7.63;3.10;;;;;;;;;;4973996;28;20232;-72
2022/07/11 07:58:43;;;;;;;4.07;3.00;;;;;;;;;;4971274;28;20180;-72
2022/07/11 08:03:58;;;;;;;3.97;3.00;;;;;;;;;;4974045;28;20224;-72
2022/07/11 08:06:31;;;;;;;5.30;3.00;;;;;;;;;;4973368;28;20212;-72
2022/07/11 08:08:58;;;;;;;6.43;3.10;;;;;;;;;;4971561;28;20190;-72
2022/07/11 08:11:25;;;;;;;5.47;3.40;;;;;;;;;;4971012;28;20185;-72
2022/07/11 08:13:51;;;;;;;5.83;3.07;;;;;;;;;;4972573;28;20203;-72
2022/07/11 08:16:17;;;;;;;8.03;3.50;;;;;;;;;;4971850;28;20239;-72
2022/07/11 08:18:45;;;;;;;5.00;3.27;;;;;;;;;;4972261;28;20185;-72
2022/07/11 08:21:12;;;;;;;6.03;3.30;;;;;;;;;;4973749;28;20195;-72
2022/07/11 08:23:38;;;;;;;4.23;3.10;;;;;;;;;;4973134;28;20208;-72
2022/07/11 08:26:04;;;;;;;4.73;3.37;;;;;;;;;;4973921;28;20230;-72
2022/07/11 08:28:32;;;;;;;4.60;3.00;;;;;;;;;;4971945;28;20185;-72
2022/07/11 08:30:58;;;;;;;4.03;3.00;;;;;;;;;;4973121;28;20200;-72
2022/07/11 08:33:25;;;;;;;3.97;2.70;;;;;;;;;;4971173;28;20212;-72
2022/07/11 08:35:51;;;;;;;3.90;2.90;;;;;;;;;;4971215;28;20199;-72
2022/07/11 08:38:17;;;;;;;5.80;2.87;;;;;;;;;;4954736;28;20192;-72
2022/07/11 08:40:43;;;;;;;4.93;2.67;;;;;;;;;;4970049;28;20214;-72
2022/07/11 08:43:19;;;;;;;3.10;2.60;;;;;;;;;;4973652;28;20248;-72
2022/07/11 08:45:49;;;;;;;3.00;2.40;;;;;;;;;;4968551;28;20195;-72
2022/07/11 08:48:15;;;;;;;4.33;3.03;;;;;;;;;;4970396;28;20201;-72
2022/07/11 08:50:44;;;;;;;4.67;2.93;;;;;;;;;;4970464;28;20200;-72
2022/07/11 08:53:11;;;;;;;2.97;2.70;;;;;;;;;;4955626;28;20377;-72
2022/07/11 08:55:38;;;;;;;4.73;2.67;;;;;;;;;;4973819;28;20573;-72
2022/07/11 08:58:09;;;;;;;4.20;3.00;;;;;;;;;;4975513;28;20181;-72
2022/07/11 09:00:44;;;;;;;3.80;3.07;;;;;;;;;;4971741;28;20199;-72
2022/07/11 09:03:17;;;;;;;6.47;3.10;;;;;;;;;;4972279;28;20295;-72
2022/07/11 09:05:45;;;;;;;3.10;2.80;;;;;;;;;;4972430;28;20180;-72
2022/07/11 09:08:17;;;;;;;4.20;2.70;;;;;;;;;;4974786;28;21772;-72
2022/07/11 09:10:53;;;;;;;2.90;2.50;;;;;;;;;;4967731;28;20223;-72
2022/07/11 09:13:32;;;;;;;4.30;2.70;;;;;;;;;;4971001;28;20236;-72
2022/07/11 09:16:06;;;;;;;3.47;2.60;;;;;;;;;;4965925;28;20234;-72
2022/07/11 09:18:35;;;;;;;4.47;2.90;;;;;;;;;;4973562;28;20189;-72
2022/07/11 09:26:48;;;;;;;5.40;2.40;;;;;;;;;;4969947;28;20634;-72
2022/07/11 09:29:27;;;;;;;4.43;2.33;;;;;;;;;;4933143;28;20204;-72
2022/07/11 09:31:57;;;;;;;4.13;2.50;;;;;;;;;;4967270;28;20537;-72
2022/07/11 09:34:26;;;;;;;3.67;2.50;;;;;;;;;;4969827;28;20206;-72
2022/07/11 09:36:55;;;;;;;4.27;2.37;;;;;;;;;;4969275;28;20181;-72
2022/07/11 09:39:23;;;;;;;5.13;2.37;;;;;;;;;;4958746;28;20216;-72
2022/07/11 09:41:54;;;;;;;2.83;1.90;;;;;;;;;;4970085;28;20933;-72
2022/07/11 09:44:35;;;;;;;4.17;1.90;;;;;;;;;;4970098;28;20332;-72
2022/07/11 09:47:08;;;;;;;3.00;1.50;;;;;;;;;;4970585;28;20212;-72
2022/07/11 09:49:36;;;;;;;5.27;2.00;;;;;;;;;;4969560;28;20641;-72
2022/07/11 09:52:12;;;;;;;2.33;2.00;;;;;;;;;;4965066;28;20969;-72
2022/07/11 09:55:00;;;;;;;4.43;2.00;;;;;;;;;;4971918;28;20630;-72
2022/07/11 09:57:35;;;;;;;4.63;1.87;;;;;;;;;;4966930;28;20200;-72
2022/07/11 10:00:09;;;;;;;4.47;2.57;;;;;;;;;;4970589;28;20200;-72
2022/07/11 10:02:45;;;;;;;4.37;2.30;;;;;;;;;;4968040;28;20229;-72
2022/07/11 10:05:22;;;;;;;3.60;2.40;;;;;;;;;;4968452;28;20200;-72
2022/07/11 10:08:00;;;;;;;3.40;2.60;;;;;;;;;;4937338;28;20218;-72
2022/07/11 10:10:31;;;;;;;4.63;2.33;;;;;;;;;;4968867;28;20285;-72
2022/07/11 10:13:05;;;;;;;2.40;2.20;;;;;;;;;;4942206;28;20209;-72
2022/07/11 10:15:44;;;;;;;2.27;1.90;;;;;;;;;;4954098;28;20191;-72
2022/07/11 10:18:37;;;;;;;2.53;2.33;;;;;;;;;;4971461;28;20192;-72
2022/07/11 10:21:21;;;;;;;4.37;2.50;;;;;;;;;;4969413;28;20181;-72
2022/07/11 10:24:03;;;;;;;4.37;2.40;;;;;;;;;;4950258;28;20208;-72
2022/07/11 10:26:38;;;;;;;3.37;2.37;;;;;;;;;;4949791;28;20247;-73
2022/07/11 10:29:16;;;;;;;5.07;2.33;;;;;;;;;;4959969;28;20667;-73
2022/07/11 10:31:44;;;;;;;4.13;2.50;;;;;;;;;;4964504;28;21396;-69
2022/07/11 10:34:18;;;;;;;2.63;2.10;;;;;;;;;;4964653;28;20232;-72
2022/07/11 10:36:50;;;;;;;4.73;2.50;;;;;;;;;;4967189;28;20266;-72
2022/07/11 10:39:27;;;;;;;2.53;2.20;;;;;;;;;;4969208;28;20206;-73
2022/07/11 10:41:58;;;;;;;3.53;2.27;;;;;;;;;;4965768;28;20274;-74
2022/07/11 10:44:49;;;;;;;2.60;2.10;;;;;;;;;;4967571;28;20210;-75
2022/07/11 10:47:37;;;;;;;3.13;2.30;;;;;;;;;;4966975;28;20683;-74
2022/07/11 10:50:12;;;;;;;5.43;2.67;;;;;;;;;;4971052;28;20272;-74
2022/07/11 10:52:42;;;;;;;2.97;2.40;;;;;;;;;;4969328;28;20307;-75
2022/07/11 10:55:22;;;;;;;2.50;2.30;;;;;;;;;;4947008;28;20251;-74
2022/07/11 10:58:05;;;;;;;2.93;2.17;;;;;;;;;;4969852;28;20657;-74
2022/07/11 11:00:31;;;;;;;4.90;2.57;;;;;;;;;;4965743;28;20194;-74
2022/07/11 11:03:07;;;;;;;4.20;2.27;;;;;;;;;;4972199;28;20209;-75
2022/07/11 11:05:47;;;;;;;3.00;2.70;;;;;;;;;;4972120;28;20197;-75
2022/07/11 11:08:40;;;;;;;3.83;2.60;;;;;;;;;;4972365;28;20192;-74
2022/07/11 11:11:23;;;;;;;5.10;2.70;;;;;;;;;;4951468;28;20199;-75
2022/07/11 11:14:08;;;;;;;3.57;2.80;;;;;;;;;;4952829;28;20222;-75
2022/07/11 11:16:38;;;;;;;3.73;2.70;;;;;;;;;;4972416;28;20188;-75
2022/07/11 11:19:08;;;;;;;4.50;2.80;;;;;;;;;;4965298;28;20189;-74
2022/07/11 11:21:40;;;;;;;2.93;2.57;;;;;;;;;;4971881;28;20185;-75
2022/07/11 11:24:17;;;;;;;6.07;2.70;;;;;;;;;;4973891;28;20666;-75
2022/07/11 11:26:55;;;;;;;2.80;2.60;;;;;;;;;;4954172;28;20682;-75
2022/07/11 11:29:37;;;;;;;4.13;2.57;;;;;;;;;;4966016;28;20204;-74
2022/07/11 11:32:13;;;;;;;3.37;2.70;;;;;;;;;;4968273;28;20766;-74
2022/07/11 11:34:46;;;;;;;3.50;2.63;;;;;;;;;;4971491;28;20199;-81
2022/07/11 11:37:21;;;;;;;2.90;2.40;;;;;;;;;;4972662;28;20266;-74
2022/07/11 11:39:59;;;;;;;3.83;2.80;;;;;;;;;;4964898;28;21194;-72
2022/07/11 11:42:28;;;;;;;4.40;3.20;;;;;;;;;;4947145;28;20595;-73
2022/07/11 11:44:58;;;;;;;3.57;3.17;;;;;;;;;;4966437;28;20691;-73
2022/07/11 11:47:25;;;;;;;4.30;3.50;;;;;;;;;;4969609;28;20246;-73
2022/07/11 11:49:55;;;;;;;3.40;3.10;;;;;;;;;;4960641;28;20195;-73
2022/07/11 11:52:25;;;;;;;5.10;3.33;;;;;;;;;;4967303;28;20203;-73
2022/07/11 11:54:53;;;;;;;4.73;3.30;;;;;;;;;;4970145;28;20189;-73
2022/07/11 11:57:21;;;;;;;5.33;3.07;;;;;;;;;;4972018;28;20582;-73
2022/07/11 11:59:49;;;;;;;4.57;2.70;;;;;;;;;;4972890;28;20184;-74
2022/07/11 12:02:21;;;;;;;3.00;2.77;;;;;;;;;;4937038;28;20187;-74
2022/07/11 12:04:48;;;;;;;2.97;2.67;;;;;;;;;;4977650;28;20206;-78
2022/07/11 12:07:21;;;;;;;3.30;3.00;;;;;;;;;;4976689;28;20239;-79
2022/07/11 12:09:55;;;;;;;3.83;2.83;;;;;;;;;;4975053;28;20185;-74
2022/07/11 12:15:26;;;;;;;4.20;2.53;;;;;;;;;;4962205;28;20196;-76
2022/07/11 12:17:54;;;;;;;3.70;2.60;;;;;;;;;;4971544;28;20304;-75
2022/07/11 12:20:33;;;;;;;3.03;2.70;;;;;;;;;;4976733;28;20188;-76
2022/07/11 12:22:59;;;;;;;2.97;2.60;;;;;;;;;;4968555;28;20212;-75
2022/07/11 12:25:26;;;;;;;2.40;2.20;;;;;;;;;;4975515;28;20181;-75
2022/07/11 12:27:58;;;;;;;2.77;2.40;;;;;;;;;;4974229;28;20210;-76
2022/07/11 12:30:25;;;;;;;2.40;2.20;;;;;;;;;;4954101;28;20200;-76
2022/07/11 12:33:13;;;;;;;4.27;2.20;;;;;;;;;;4975096;28;20204;-76
2022/07/11 12:36:13;;;;;;;2.43;2.23;;;;;;;;;;4974235;28;20654;-78
2022/07/11 12:38:52;;;;;;;2.40;2.20;;;;;;;;;;4924929;28;20225;-75
2022/07/11 12:41:18;;;;;;;2.57;2.30;;;;;;;;;;4969492;28;20188;-74
2022/07/11 12:46:41;;;;;;;2.57;2.33;;;;;;;;;;4970438;28;20204;-74
2022/07/11 12:49:11;;;;;;;2.37;2.10;;;;;;;;;;4953204;28;20193;-74
2022/07/11 12:51:39;;;;;;;2.33;2.00;;;;;;;;;;4972124;28;20195;-74
2022/07/11 12:54:08;;;;;;;2.53;2.33;;;;;;;;;;4976348;28;20212;-74
2022/07/11 12:56:37;;;;;;;2.20;2.00;;;;;;;;;;4954747;28;20196;-74
2022/07/11 12:59:21;;;;;;;2.70;2.00;;;;;;;;;;4971639;28;20185;-75
2022/07/11 13:01:56;;;;;;;2.20;2.00;;;;;;;;;;4968841;28;20185;-75
2022/07/11 13:04:33;;;;;;;2.00;1.80;;;;;;;;;;4973735;28;20291;-75
2022/07/11 13:10:51;;;;;;;3.03;1.93;;;;;;;;;;4943307;28;20218;-75
2022/07/11 13:13:18;;;;;;;2.15;2.05;;;;;;;;;;4972585;28;20434;-74
2022/07/11 13:15:50;;;;;;;2.07;1.97;;;;;;;;;;4972695;28;20190;-75
2022/07/11 13:18:24;;;;;;;2.90;2.10;;;;;;;;;;4970248;28;20184;-74
2022/07/11 13:20:55;;;;;;;2.03;1.90;;;;;;;;;;4972153;28;21093;-75
2022/07/11 13:23:28;;;;;;;3.47;2.37;;;;;;;;;;4971197;28;20274;-74
2022/07/11 13:25:59;;;;;;;2.33;2.13;;;;;;;;;;4941725;28;20215;-74
2022/07/11 13:28:36;;;;;;;2.47;2.00;;;;;;;;;;4969071;28;20196;-74
2022/07/11 13:31:12;;;;;;;2.40;2.20;;;;;;;;;;4970827;28;20205;-75
2022/07/11 13:33:41;;;;;;;2.37;2.13;;;;;;;;;;4968583;28;20700;-75
2022/07/11 13:36:07;;;;;;;2.93;2.10;;;;;;;;;;4969453;28;20695;-75
2022/07/11 13:38:34;;;;;;;2.70;1.77;;;;;;;;;;4970931;28;20184;-75
2022/07/11 13:41:00;;;;;;;2.33;2.13;;;;;;;;;;4971460;28;20177;-76
2022/07/11 13:43:29;;;;;;;2.00;1.80;;;;;;;;;;4969132;28;20348;-76
2022/07/11 13:45:55;;;;;;;4.30;1.80;;;;;;;;;;4968228;28;20266;-76
2022/07/11 13:48:23;;;;;;;2.03;1.83;;;;;;;;;;4967085;28;20243;-75
2022/07/11 13:50:49;;;;;;;1.70;1.60;;;;;;;;;;4967886;28;20188;-75
2022/07/11 13:53:18;;;;;;;4.23;1.83;;;;;;;;;;4966526;28;20205;-75
2022/07/11 13:55:49;;;;;;;1.80;1.70;;;;;;;;;;4966462;28;20193;-75
2022/07/11 13:58:24;;;;;;;2.70;1.60;;;;;;;;;;4967174;28;20275;-75
2022/07/11 14:00:51;;;;;;;2.17;1.50;;;;;;;;;;4970936;28;20655;-75
2022/07/11 14:03:17;;;;;;;1.73;1.60;;;;;;;;;;4968026;28;20238;-75
2022/07/11 14:05:44;;;;;;;1.70;1.60;;;;;;;;;;4968325;28;20184;-75
2022/07/11 14:08:12;;;;;;;1.93;1.73;;;;;;;;;;4969293;28;20237;-75
2022/07/11 14:10:40;;;;;;;1.77;1.40;;;;;;;;;;4968466;28;20185;-75
2022/07/11 14:13:07;;;;;;;2.37;1.50;;;;;;;;;;4967580;28;20216;-72
2022/07/11 14:15:39;;;;;;;1.50;1.40;;;;;;;;;;4969043;28;20313;-72
2022/07/11 14:18:05;;;;;;;1.73;1.63;;;;;;;;;;4965144;28;20783;-75
2022/07/11 14:20:32;;;;;;;3.27;2.00;;;;;;;;;;4968463;28;20288;-75
2022/07/11 14:22:58;;;;;;;2.07;1.70;;;;;;;;;;4965550;28;20202;-75
2022/07/11 14:25:25;;;;;;;1.83;1.50;;;;;;;;;;4965567;28;20547;-79
2022/07/11 14:27:52;;;;;;;1.80;1.70;;;;;;;;;;4968353;28;20263;-77
2022/07/11 14:30:18;;;;;;;2.00;1.80;;;;;;;;;;4967825;28;20730;-75
2022/07/11 14:32:45;;;;;;;2.30;1.70;;;;;;;;;;4963964;28;20229;-75
2022/07/11 14:35:13;;;;;;;1.87;1.77;;;;;;;;;;4966634;28;20188;-75
2022/07/11 14:37:40;;;;;;;3.20;1.90;;;;;;;;;;4965138;28;20195;-72
2022/07/11 14:40:07;;;;;;;2.30;1.80;;;;;;;;;;4963268;28;20280;-72
2022/07/11 14:42:34;;;;;;;2.00;1.90;;;;;;;;;;4961913;28;20225;-72
2022/07/11 14:45:00;;;;;;;2.57;2.13;;;;;;;;;;4966070;28;20285;-72
2022/07/11 14:47:27;;;;;;;3.40;1.90;;;;;;;;;;4968949;28;20223;-73
2022/07/11 14:49:53;;;;;;;2.30;2.10;;;;;;;;;;4961313;28;20607;-73
2022/07/11 14:52:20;;;;;;;2.10;1.90;;;;;;;;;;4964803;28;20185;-73
2022/07/11 14:54:50;;;;;;;2.00;1.77;;;;;;;;;;4963550;28;20958;-73
2022/07/11 14:57:17;;;;;;;2.33;1.90;;;;;;;;;;4963648;28;20199;-73
2022/07/11 14:59:43;;;;;;;2.40;2.03;;;;;;;;;;4962747;28;20182;-74
2022/07/11 15:02:13;;;;;;;2.43;2.10;;;;;;;;;;4964520;28;20232;-74
2022/07/11 15:04:39;;;;;;;3.30;2.10;;;;;;;;;;4951272;28;20220;-74
2022/07/11 15:12:41;;;;;;;2.23;2.03;;;;;;;;;;4966215;28;20263;-74
2022/07/11 15:15:10;;;;;;;2.50;2.30;;;;;;;;;;4964300;28;20269;-74
2022/07/11 15:17:37;;;;;;;4.00;2.10;;;;;;;;;;4962685;28;20216;-74
2022/07/11 15:20:04;;;;;;;3.57;2.10;;;;;;;;;;4965341;28;20257;-74
2022/07/11 15:22:30;;;;;;;2.40;2.13;;;;;;;;;;4968237;28;20200;-74
2022/07/11 15:24:57;;;;;;;2.17;1.90;;;;;;;;;;4966928;28;20187;-74
2022/07/11 15:27:26;;;;;;;2.43;2.23;;;;;;;;;;4968677;28;20219;-75
2022/07/11 15:29:52;;;;;;;2.00;1.87;;;;;;;;;;4957626;28;20288;-74
2022/07/11 15:32:18;;;;;;;2.30;2.10;;;;;;;;;;4969672;28;20207;-75
2022/07/11 15:34:48;;;;;;;2.10;1.90;;;;;;;;;;4969121;28;20180;-75